Time;durP1;ratioP1;P1;durP2;ratioP2;P2;SDS_P1;SDS_P2;PMS_P1;PMS_P2;Temp;Humidity;BMP_temperature;BMP_pressure;BME280_temperature;BME280_humidity;BME280_pressure;Samples;Min_cycle;Max_cycle;Signal;HPM_P1;HPM_P2
2023/10/22 00:01:28;;;;;;;15.5;13.4;;;;;;;15.38;88.32;;;;;
2023/10/22 00:11:28;;;;;;;15.5;13.4;;;;;;;15.37;88.51;;;;;
2023/10/22 00:22:28;;;;;;;15.5;13.4;;;;;;;15.24;89.23;;;;;
2023/10/22 00:32:28;;;;;;;16.1;11.5;;;;;;;15.15;89.81;;;;;
2023/10/22 00:42:28;;;;;;;16.1;11.5;;;;;;;15.21;89.9;;;;;
2023/10/22 00:53:30;;;;;;;16.1;11.5;;;;;;;15.32;89.54;;;;;
2023/10/22 01:03:28;;;;;;;20.9;15.1;;;;;;;15.42;89.07;;;;;
2023/10/22 01:14:28;;;;;;;20.9;15.1;;;;;;;15.38;88.66;;;;;
2023/10/22 01:25:28;;;;;;;20.9;15.1;;;;;;;15.34;88.7;;;;;
2023/10/22 01:35:28;;;;;;;20.2;16;;;;;;;15.11;90.02;;;;;
2023/10/22 01:46:28;;;;;;;20.2;16;;;;;;;15.02;90.56;;;;;
2023/10/22 01:57:28;;;;;;;20.2;16;;;;;;;15.13;90.2;;;;;
2023/10/22 02:07:28;;;;;;;18;13.4;;;;;;;15.07;89.82;;;;;
2023/10/22 02:17:28;;;;;;;18;13.4;;;;;;;15.07;89.95;;;;;
2023/10/22 02:27:28;;;;;;;18;13.4;;;;;;;15.05;89.75;;;;;
2023/10/22 02:38:28;;;;;;;12.2;9.7;;;;;;;14.99;89.86;;;;;
2023/10/22 02:48:28;;;;;;;12.2;9.7;;;;;;;15.07;90.26;;;;;
2023/10/22 02:59:28;;;;;;;12.2;9.7;;;;;;;15.08;90.1;;;;;
2023/10/22 03:09:28;;;;;;;9.4;6.1;;;;;;;15.15;89.6;;;;;
2023/10/22 03:20:28;;;;;;;9.4;6.1;;;;;;;15.25;89.18;;;;;
2023/10/22 03:30:28;;;;;;;11;7;;;;;;;15.15;89.35;;;;;
2023/10/22 03:40:28;;;;;;;11;7;;;;;;;15.17;89.29;;;;;
2023/10/22 03:51:28;;;;;;;11;7;;;;;;;15.05;89.79;;;;;
2023/10/22 04:01:28;;;;;;;10.3;7.6;;;;;;;15.12;89.49;;;;;
2023/10/22 04:12:28;;;;;;;10.3;7.6;;;;;;;15.04;89.53;;;;;
2023/10/22 04:22:28;;;;;;;10.3;7.6;;;;;;;15.02;89.64;;;;;
2023/10/22 04:33:28;;;;;;;8.8;5.3;;;;;;;15.05;89.86;;;;;
2023/10/22 04:44:28;;;;;;;8.8;5.3;;;;;;;14.79;90.97;;;;;
2023/10/22 04:54:28;;;;;;;8.8;5.3;;;;;;;14.9;90.77;;;;;
2023/10/22 05:04:28;;;;;;;5.5;2.9;;;;;;;14.89;90.59;;;;;
2023/10/22 05:15:28;;;;;;;5.5;2.9;;;;;;;14.93;90.26;;;;;
2023/10/22 05:25:28;;;;;;;5.5;2.9;;;;;;;14.92;90.12;;;;;
2023/10/22 05:36:28;;;;;;;5.1;2.8;;;;;;;14.94;90.08;;;;;
2023/10/22 05:46:28;;;;;;;5.1;2.8;;;;;;;14.96;89.8;;;;;
2023/10/22 05:57:28;;;;;;;5.1;2.8;;;;;;;14.86;90.09;;;;;
2023/10/22 06:07:28;;;;;;;7;3;;;;;;;14.89;90.48;;;;;
2023/10/22 06:18:28;;;;;;;7;3;;;;;;;14.96;90.39;;;;;
2023/10/22 06:29:28;;;;;;;7;3;;;;;;;15.14;91.33;;;;;
2023/10/22 06:39:28;;;;;;;7;5.7;;;;;;;15.56;90.98;;;;;
2023/10/22 06:49:28;;;;;;;7;5.7;;;;;;;15.69;89.74;;;;;
2023/10/22 07:00:28;;;;;;;10.8;7.2;;;;;;;16.19;88.96;;;;;
2023/10/22 07:10:28;;;;;;;10.8;7.2;;;;;;;16.36;88.1;;;;;
2023/10/22 07:20:28;;;;;;;10.8;7.2;;;;;;;16.36;88.17;;;;;
2023/10/22 07:30:29;;;;;;;8.8;5.9;;;;;;;16.44;87.72;;;;;
2023/10/22 07:41:28;;;;;;;8.8;5.9;;;;;;;16.43;87.27;;;;;
2023/10/22 07:52:28;;;;;;;8.8;5.9;;;;;;;16.45;86.87;;;;;
2023/10/22 08:03:29;;;;;;;6.5;3.6;;;;;;;16.25;87.8;;;;;
2023/10/22 08:13:28;;;;;;;6.5;3.6;;;;;;;16.4;88.6;;;;;
2023/10/22 08:24:29;;;;;;;6.5;3.6;;;;;;;16.99;87.26;;;;;
2023/10/22 08:34:28;;;;;;;9.3;5.3;;;;;;;17.84;87.02;;;;;
2023/10/22 08:44:28;;;;;;;9.3;5.3;;;;;;;18.27;83.43;;;;;
2023/10/22 08:55:28;;;;;;;9.3;5.3;;;;;;;18.52;81.58;;;;;
2023/10/22 09:06:28;;;;;;;15.6;8.3;;;;;;;18.27;81.9;;;;;
2023/10/22 09:16:28;;;;;;;15.6;8.3;;;;;;;18.4;82.21;;;;;
2023/10/22 09:26:28;;;;;;;15.6;8.3;;;;;;;18.29;82.19;;;;;
2023/10/22 09:37:28;;;;;;;15.5;9.4;;;;;;;18.32;82.03;;;;;
2023/10/22 09:47:28;;;;;;;15.5;9.4;;;;;;;18.71;82.24;;;;;
2023/10/22 09:57:28;;;;;;;15.5;9.4;;;;;;;18.83;79.85;;;;;
2023/10/22 10:07:28;;;;;;;10.8;5.9;;;;;;;18.95;81.33;;;;;
2023/10/22 10:17:28;;;;;;;10.8;5.9;;;;;;;18.74;81.9;;;;;
2023/10/22 10:27:28;;;;;;;10.8;5.9;;;;;;;18.8;81.33;;;;;
2023/10/22 10:38:28;;;;;;;6.8;4.1;;;;;;;18.54;82.42;;;;;
2023/10/22 10:48:28;;;;;;;6.8;4.1;;;;;;;18.47;83.09;;;;;
2023/10/22 10:59:28;;;;;;;6.8;4.1;;;;;;;18.4;82.73;;;;;
2023/10/22 11:09:28;;;;;;;10.6;6.4;;;;;;;18.12;83.49;;;;;
2023/10/22 11:20:28;;;;;;;10.6;6.4;;;;;;;17.47;85.54;;;;;
2023/10/22 11:30:28;;;;;;;12;8.5;;;;;;;17.43;86.03;;;;;
2023/10/22 11:41:30;;;;;;;12;8.5;;;;;;;17.27;86.58;;;;;
2023/10/22 11:51:28;;;;;;;12;8.5;;;;;;;17.25;87.11;;;;;
2023/10/22 12:02:28;;;;;;;9.9;6.7;;;;;;;16.89;86.39;;;;;
2023/10/22 12:13:28;;;;;;;9.9;6.7;;;;;;;16.14;85.17;;;;;
2023/10/22 12:24:28;;;;;;;9.9;6.7;;;;;;;15.7;86.3;;;;;
2023/10/22 12:34:28;;;;;;;4.9;3.5;;;;;;;15.55;86.68;;;;;
2023/10/22 12:44:28;;;;;;;4.9;3.5;;;;;;;15.3;86.87;;;;;
2023/10/22 12:54:28;;;;;;;4.9;3.5;;;;;;;15;88.29;;;;;
2023/10/22 13:04:28;;;;;;;4.9;3.3;;;;;;;14.72;88.84;;;;;
2023/10/22 13:14:28;;;;;;;4.9;3.3;;;;;;;14.6;89.83;;;;;
2023/10/22 13:24:28;;;;;;;4.9;3.3;;;;;;;14.4;90.31;;;;;
2023/10/22 13:35:28;;;;;;;7.8;4.5;;;;;;;14.25;90.63;;;;;
2023/10/22 13:45:28;;;;;;;7.8;4.5;;;;;;;14.06;90.5;;;;;
2023/10/22 13:56:28;;;;;;;7.8;4.5;;;;;;;14.09;89.32;;;;;
2023/10/22 14:06:28;;;;;;;4.8;3.6;;;;;;;13.89;88.94;;;;;
2023/10/22 14:16:28;;;;;;;4.8;3.6;;;;;;;13.71;89.12;;;;;
2023/10/22 14:27:28;;;;;;;4.8;3.6;;;;;;;13.47;89.7;;;;;
2023/10/22 14:37:29;;;;;;;4.4;2.4;;;;;;;13.49;89.81;;;;;
2023/10/22 14:48:28;;;;;;;4.4;2.4;;;;;;;13.58;89.47;;;;;
2023/10/22 14:58:28;;;;;;;4.4;2.4;;;;;;;13.59;89.11;;;;;
2023/10/22 15:09:28;;;;;;;7.7;2.7;;;;;;;13.57;88.34;;;;;
2023/10/22 15:19:28;;;;;;;7.7;2.7;;;;;;;13.57;88.35;;;;;
2023/10/22 15:30:30;;;;;;;5.1;2.8;;;;;;;13.6;88.17;;;;;
2023/10/22 15:40:28;;;;;;;5.1;2.8;;;;;;;13.49;88.66;;;;;
2023/10/22 15:50:28;;;;;;;5.1;2.8;;;;;;;13.44;88.52;;;;;
2023/10/22 16:00:28;;;;;;;5.1;2.8;;;;;;;13.52;88.39;;;;;
2023/10/22 16:11:28;;;;;;;4.4;2.3;;;;;;;13.4;88.66;;;;;
2023/10/22 16:21:28;;;;;;;4.4;2.3;;;;;;;13.41;88.04;;;;;
2023/10/22 16:31:30;;;;;;;5.9;3.2;;;;;;;13.36;87.98;;;;;
2023/10/22 16:42:28;;;;;;;5.9;3.2;;;;;;;13.25;87.68;;;;;
2023/10/22 16:52:29;;;;;;;5.9;3.2;;;;;;;13.2;87.3;;;;;
2023/10/22 17:02:28;;;;;;;4.3;2;;;;;;;13.07;87.48;;;;;
2023/10/22 17:12:28;;;;;;;4.3;2;;;;;;;13.03;87.44;;;;;
2023/10/22 17:23:28;;;;;;;4.3;2;;;;;;;13.08;87.32;;;;;
2023/10/22 17:34:28;;;;;;;3.9;1.9;;;;;;;13.03;87.18;;;;;
2023/10/22 17:45:31;;;;;;;3.9;1.9;;;;;;;12.88;87.26;;;;;
2023/10/22 17:55:29;;;;;;;3.9;1.9;;;;;;;12.72;87.46;;;;;
2023/10/22 18:06:29;;;;;;;4.9;2.8;;;;;;;12.67;87.65;;;;;
2023/10/22 18:16:28;;;;;;;4.9;2.8;;;;;;;12.64;87.53;;;;;
2023/10/22 18:27:28;;;;;;;4.9;2.8;;;;;;;12.49;87.74;;;;;
2023/10/22 18:37:28;;;;;;;6.8;3.7;;;;;;;12.38;87.96;;;;;
2023/10/22 18:47:28;;;;;;;6.8;3.7;;;;;;;12.23;88.22;;;;;
2023/10/22 19:18:01;;;;;;;6.2;3.4;;;;;;;12.15;86;;;;;
2023/10/22 19:28:01;;;;;;;6.2;3.4;;;;;;;12.04;85.68;;;;;
2023/10/22 19:38:01;;;;;;;5;3;;;;;;;11.83;85.56;;;;;
2023/10/22 19:48:01;;;;;;;5;3;;;;;;;11.66;85.86;;;;;
2023/10/22 19:59:02;;;;;;;5;3;;;;;;;11.51;85.99;;;;;
2023/10/22 20:10:02;;;;;;;5.9;2.8;;;;;;;11.58;86.9;;;;;
2023/10/22 20:21:01;;;;;;;5.9;2.8;;;;;;;11.67;86.8;;;;;
2023/10/22 20:31:01;;;;;;;6.3;3.3;;;;;;;11.59;86.64;;;;;
2023/10/22 20:41:01;;;;;;;6.3;3.3;;;;;;;11.57;86.86;;;;;
2023/10/22 20:52:01;;;;;;;6.3;3.3;;;;;;;11.55;86.45;;;;;
2023/10/22 21:02:01;;;;;;;7.7;3.8;;;;;;;11.28;86.31;;;;;
2023/10/22 21:13:01;;;;;;;7.7;3.8;;;;;;;11;86.82;;;;;
2023/10/22 21:24:01;;;;;;;7.7;3.8;;;;;;;10.92;88.2;;;;;
2023/10/22 21:35:01;;;;;;;7.2;3.8;;;;;;;10.93;88.46;;;;;
2023/10/22 21:46:01;;;;;;;7.2;3.8;;;;;;;10.91;88.42;;;;;
2023/10/22 21:56:02;;;;;;;7.2;3.8;;;;;;;10.73;88.31;;;;;
2023/10/22 22:07:01;;;;;;;8.7;5.3;;;;;;;10.44;89.9;;;;;
2023/10/22 22:17:02;;;;;;;8.7;5.3;;;;;;;10.35;89.05;;;;;
2023/10/22 22:28:01;;;;;;;8.7;5.3;;;;;;;10.07;88.86;;;;;
2023/10/22 22:39:01;;;;;;;6.8;3.6;;;;;;;9.75;88.31;;;;;
2023/10/22 22:49:01;;;;;;;6.8;3.6;;;;;;;9.45;88.14;;;;;
2023/10/22 23:00:03;;;;;;;6.9;3.8;;;;;;;9.25;88.43;;;;;
2023/10/22 23:10:01;;;;;;;6.9;3.8;;;;;;;9.06;88.95;;;;;
2023/10/22 23:21:01;;;;;;;6.9;3.8;;;;;;;8.89;89.15;;;;;
2023/10/22 23:32:01;;;;;;;5.3;2.5;;;;;;;8.74;89.08;;;;;
2023/10/22 23:43:01;;;;;;;5.3;2.5;;;;;;;8.55;89.28;;;;;
2023/10/22 23:53:01;;;;;;;5.3;2.5;;;;;;;8.35;89.95;;;;;
